createdAt,value
2023-02-07T00:02:21.101Z,33.13
2023-02-07T00:04:51.823Z,37.33
2023-02-07T00:07:22.807Z,31.10
2023-02-07T00:09:53.280Z,33.73
2023-02-07T00:12:25.302Z,34.83
2023-02-07T00:14:56.161Z,33.80
2023-02-07T00:17:27.076Z,35.90
2023-02-07T00:19:57.590Z,32.87
2023-02-07T00:22:28.336Z,32.50
2023-02-07T00:24:59.517Z,30.80
2023-02-07T00:27:30.385Z,30.40
2023-02-07T00:30:01.256Z,32.80
2023-02-07T00:32:35.659Z,30.07
2023-02-07T00:35:07.038Z,35.10
2023-02-07T00:37:37.557Z,33.10
2023-02-07T00:40:08.922Z,33.90
2023-02-07T00:42:39.458Z,34.87
2023-02-07T00:45:10.765Z,34.07
2023-02-07T00:47:41.373Z,35.50
2023-02-07T00:50:11.994Z,35.90
2023-02-07T00:52:42.520Z,31.10
2023-02-07T00:55:13.135Z,33.33
2023-02-07T00:57:44.356Z,32.77
2023-02-07T01:00:15.451Z,30.20
2023-02-07T01:02:47.036Z,30.80
2023-02-07T01:05:19.261Z,29.60
2023-02-07T01:07:50.825Z,29.20
2023-02-07T01:10:24.174Z,32.13
2023-02-07T01:12:54.966Z,34.30
2023-02-07T01:15:25.644Z,39.47
2023-02-07T01:17:57.958Z,35.13
2023-02-07T01:20:30.179Z,32.47
2023-02-07T01:23:00.659Z,31.90
2023-02-07T01:25:31.661Z,34.30
2023-02-07T01:28:02.204Z,36.80
2023-02-07T01:30:33.256Z,32.50
2023-02-07T01:33:04.001Z,32.40
2023-02-07T01:35:38.861Z,30.40
2023-02-07T01:38:11.172Z,33.77
2023-02-07T01:40:43.502Z,34.73
2023-02-07T01:43:17.041Z,34.27
2023-02-07T01:45:47.724Z,33.60
2023-02-07T01:48:30.373Z,33.40
2023-02-07T01:51:04.213Z,33.73
2023-02-07T01:53:37.232Z,33.17
2023-02-07T01:56:12.008Z,34.80
2023-02-07T01:58:42.320Z,36.80
2023-02-07T02:01:16.089Z,41.90
2023-02-07T02:03:48.753Z,38.10
2023-02-07T02:06:22.922Z,37.63
2023-02-07T02:09:00.783Z,38.27
2023-02-07T02:11:34.559Z,39.20
2023-02-07T02:14:36.869Z,44.97
2023-02-07T02:17:16.365Z,38.33
2023-02-07T02:20:10.208Z,39.37
2023-02-07T02:23:17.633Z,35.60
2023-02-07T02:25:57.761Z,42.43
2023-02-07T02:28:52.797Z,37.20
2023-02-07T02:31:44.775Z,36.03
2023-02-07T02:34:30.421Z,31.87
2023-02-07T02:37:23.683Z,30.37
2023-02-07T02:40:12.824Z,31.30
2023-02-07T02:42:49.226Z,36.07
2023-02-07T02:45:25.343Z,41.30
2023-02-07T02:47:57.054Z,35.27
2023-02-07T02:50:32.203Z,34.13
2023-02-07T02:53:04.096Z,35.93
2023-02-07T02:55:57.201Z,37.10
2023-02-07T02:58:30.893Z,34.30
2023-02-07T03:01:07.669Z,33.70
2023-02-07T03:04:01.357Z,39.23
2023-02-07T03:06:56.197Z,36.07
2023-02-07T03:09:46.482Z,38.53
2023-02-07T03:12:28.852Z,35.27
2023-02-07T03:15:19.190Z,34.07
2023-02-07T03:18:13.766Z,37.60
2023-02-07T03:20:47.368Z,31.07
2023-02-07T03:23:20.974Z,29.83
2023-02-07T03:25:53.681Z,30.43
2023-02-07T03:28:26.677Z,28.50
2023-02-07T03:31:00.119Z,31.57
2023-02-07T03:33:32.440Z,31.00
2023-02-07T03:36:17.811Z,30.07
2023-02-07T03:38:48.695Z,34.50
2023-02-07T03:41:25.001Z,30.73
2023-02-07T03:43:58.139Z,38.47
2023-02-07T03:46:31.833Z,35.07
2023-02-07T03:49:02.930Z,29.67
2023-02-07T03:51:33.353Z,29.90
2023-02-07T03:54:05.516Z,31.20
2023-02-07T03:56:38.178Z,31.03
2023-02-07T03:59:10.169Z,30.10
2023-02-07T04:01:42.632Z,28.97
2023-02-07T04:04:13.624Z,32.67
2023-02-07T04:06:45.804Z,29.47
2023-02-07T04:09:17.223Z,32.30
2023-02-07T04:11:52.743Z,31.03
2023-02-07T04:14:23.415Z,30.87
2023-02-07T04:16:54.108Z,27.17
2023-02-07T04:19:24.904Z,29.93
2023-02-07T04:21:55.388Z,27.07
2023-02-07T04:24:26.251Z,31.40
2023-02-07T04:26:56.639Z,28.33
2023-02-07T04:29:27.336Z,25.67
2023-02-07T04:31:59.091Z,27.97
2023-02-07T04:34:29.596Z,28.37
2023-02-07T04:37:00.772Z,27.57
2023-02-07T04:39:31.126Z,32.20
2023-02-07T04:42:01.596Z,28.43
2023-02-07T04:44:32.228Z,31.67
2023-02-07T04:47:02.675Z,32.07
2023-02-07T04:49:34.600Z,30.27
2023-02-07T04:52:07.050Z,29.83
2023-02-07T04:54:37.645Z,29.47
2023-02-07T04:57:08.020Z,31.07
2023-02-07T04:59:38.908Z,29.70
2023-02-07T05:02:09.556Z,30.83
2023-02-07T05:04:40.151Z,30.10
2023-02-07T05:07:14.774Z,32.57
2023-02-07T05:09:43.052Z,29.73
2023-02-07T05:12:14.359Z,30.80
2023-02-07T05:14:47.556Z,27.40
2023-02-07T05:17:18.042Z,29.00
2023-02-07T05:19:49.944Z,30.77
2023-02-07T05:22:20.336Z,30.53
2023-02-07T05:24:50.939Z,28.67
2023-02-07T05:27:21.595Z,28.57
2023-02-07T05:29:53.221Z,28.37
2023-02-07T05:32:42.252Z,30.87
2023-02-07T05:35:14.197Z,31.90
2023-02-07T05:37:48.498Z,33.63
2023-02-07T05:40:19.326Z,27.50
2023-02-07T05:42:51.485Z,32.50
2023-02-07T05:45:23.106Z,32.53
2023-02-07T05:47:53.620Z,30.27
2023-02-07T05:50:24.614Z,28.10
2023-02-07T05:52:55.168Z,30.83
2023-02-07T05:55:25.813Z,29.77
2023-02-07T05:57:57.022Z,31.47
2023-02-07T06:00:27.599Z,33.80
2023-02-07T06:02:58.137Z,32.00
2023-02-07T06:05:30.419Z,35.07
2023-02-07T06:08:00.977Z,31.77
2023-02-07T06:10:43.446Z,33.83
2023-02-07T06:13:14.121Z,34.80
2023-02-07T06:15:46.286Z,32.67
2023-02-07T06:18:16.885Z,34.23
2023-02-07T06:20:50.115Z,36.87
2023-02-07T06:23:23.014Z,36.13
2023-02-07T06:25:53.605Z,44.70
2023-02-07T06:28:25.126Z,44.63
2023-02-07T06:30:56.045Z,49.93
2023-02-07T06:33:26.561Z,44.73
2023-02-07T06:35:58.711Z,42.53
2023-02-07T06:38:29.480Z,46.37
2023-02-07T06:41:01.962Z,50.73
2023-02-07T06:43:33.936Z,42.30
2023-02-07T06:46:04.700Z,46.97
2023-02-07T06:48:37.095Z,45.07
2023-02-07T06:51:08.136Z,42.80
2023-02-07T06:53:38.779Z,43.00
2023-02-07T06:56:09.372Z,45.83
2023-02-07T06:58:41.635Z,42.90
2023-02-07T07:01:16.389Z,48.03
2023-02-07T07:03:49.852Z,45.17
2023-02-07T07:06:20.368Z,48.63
2023-02-07T07:08:51.810Z,42.60
2023-02-07T07:11:22.702Z,45.63
2023-02-07T07:13:53.356Z,47.60
2023-02-07T07:16:31.417Z,50.10
2023-02-07T07:19:02.382Z,46.63
2023-02-07T07:21:33.510Z,49.33
2023-02-07T07:24:05.367Z,48.67
2023-02-07T07:26:48.380Z,47.70
2023-02-07T07:29:08.314Z,46.70
2023-02-07T07:31:38.881Z,50.07
2023-02-07T07:34:11.401Z,46.20
2023-02-07T07:36:42.116Z,42.17
2023-02-07T07:39:13.286Z,43.50
2023-02-07T07:41:44.290Z,44.63
2023-02-07T07:44:16.240Z,42.67
2023-02-07T07:46:48.552Z,43.13
2023-02-07T07:49:20.816Z,42.80
2023-02-07T07:51:51.375Z,41.13
2023-02-07T07:54:23.440Z,45.27
2023-02-07T07:56:54.081Z,45.97
2023-02-07T07:59:26.180Z,41.20
2023-02-07T08:01:56.673Z,42.67
2023-02-07T08:04:27.269Z,39.67
2023-02-07T08:06:57.799Z,37.13
2023-02-07T08:09:31.354Z,90.63
2023-02-07T08:12:01.877Z,44.40
2023-02-07T08:14:32.397Z,40.60
2023-02-07T08:17:03.044Z,46.23
2023-02-07T08:19:33.717Z,41.83
2023-02-07T08:22:06.326Z,38.13
2023-02-07T08:24:36.899Z,35.60
2023-02-07T08:27:07.551Z,32.27
2023-02-07T08:29:56.658Z,32.57
2023-02-07T08:32:27.215Z,36.30
2023-02-07T08:34:57.746Z,28.30
2023-02-07T08:37:29.767Z,32.67
2023-02-07T08:40:00.477Z,33.23
2023-02-07T08:42:30.891Z,31.50
2023-02-07T08:45:01.476Z,30.37
2023-02-07T08:47:32.498Z,35.13
2023-02-07T08:50:04.740Z,30.97
2023-02-07T08:52:36.899Z,30.00
2023-02-07T08:55:12.135Z,29.50
2023-02-07T08:57:42.718Z,28.30
2023-02-07T09:00:15.461Z,27.43
2023-02-07T09:02:50.653Z,26.33
2023-02-07T09:05:22.885Z,26.60
2023-02-07T09:07:53.354Z,26.43
2023-02-07T09:10:23.851Z,26.37
2023-02-07T09:12:54.740Z,24.50
2023-02-07T09:15:26.166Z,26.80
2023-02-07T09:17:57.452Z,29.80
2023-02-07T09:20:29.478Z,24.50
2023-02-07T09:23:19.417Z,22.37
2023-02-07T09:25:53.200Z,23.03
2023-02-07T09:28:23.744Z,24.50
2023-02-07T09:30:54.959Z,25.10
2023-02-07T09:33:25.834Z,23.07
2023-02-07T09:35:56.356Z,27.30
2023-02-07T09:38:26.899Z,24.73
2023-02-07T09:40:59.359Z,23.77
2023-02-07T09:43:52.846Z,28.60
2023-02-07T09:46:26.663Z,25.90
2023-02-07T09:49:09.606Z,24.30
2023-02-07T09:51:41.675Z,26.07
2023-02-07T09:54:21.370Z,26.93
2023-02-07T09:56:55.146Z,25.00
2023-02-07T09:59:48.487Z,23.37
2023-02-07T10:02:37.207Z,26.23
2023-02-07T10:05:14.724Z,24.87
2023-02-07T10:07:50.072Z,27.13
2023-02-07T10:10:23.523Z,29.03
2023-02-07T10:12:56.964Z,25.23
2023-02-07T10:15:42.996Z,25.50
2023-02-07T10:18:19.306Z,27.60
2023-02-07T10:21:02.676Z,26.23
2023-02-07T10:23:44.112Z,21.53
2023-02-07T10:26:20.383Z,24.23
2023-02-07T10:29:04.141Z,26.60
2023-02-07T10:31:39.324Z,25.27
2023-02-07T10:34:18.490Z,25.93
2023-02-07T10:36:52.514Z,26.40
2023-02-07T10:39:34.784Z,24.00
2023-02-07T10:42:07.982Z,26.40
2023-02-07T10:44:43.829Z,23.27
2023-02-07T10:47:19.128Z,26.60
2023-02-07T10:49:52.346Z,26.23
2023-02-07T10:52:36.188Z,24.47
2023-02-07T10:55:10.285Z,26.17
2023-02-07T10:57:45.908Z,22.07
2023-02-07T11:00:19.919Z,24.77
2023-02-07T11:03:14.737Z,25.47
2023-02-07T11:06:09.911Z,27.23
2023-02-07T11:08:45.142Z,24.23
2023-02-07T11:11:28.170Z,21.23
2023-02-07T11:14:04.506Z,21.93
2023-02-07T11:16:35.742Z,22.97
2023-02-07T11:19:08.274Z,20.80
2023-02-07T11:21:49.942Z,21.37
2023-02-07T11:24:25.260Z,22.07
2023-02-07T11:27:02.669Z,21.13
2023-02-07T11:29:39.211Z,23.43
2023-02-07T11:32:11.539Z,21.60
2023-02-07T11:34:46.082Z,20.60
2023-02-07T11:37:27.378Z,23.03
2023-02-07T11:40:17.697Z,24.27
2023-02-07T11:42:57.109Z,23.13
2023-02-07T11:45:30.374Z,24.40
2023-02-07T11:48:04.146Z,22.17
2023-02-07T11:50:39.707Z,25.77
2023-02-07T11:53:27.280Z,22.53
2023-02-07T11:55:58.493Z,26.17
2023-02-07T11:58:38.378Z,26.97
2023-02-07T12:01:09.708Z,23.97
2023-02-07T12:03:57.012Z,21.73
2023-02-07T12:06:31.077Z,20.97
2023-02-07T12:09:04.033Z,23.57
2023-02-07T12:11:37.696Z,23.43
2023-02-07T12:14:27.453Z,25.00
2023-02-07T12:17:01.194Z,24.23
2023-02-07T12:19:34.777Z,23.63
2023-02-07T12:22:23.684Z,22.07
2023-02-07T12:25:06.143Z,23.23
2023-02-07T12:27:39.653Z,23.93
2023-02-07T12:30:22.021Z,19.83
2023-02-07T12:33:00.382Z,25.23
2023-02-07T12:36:07.808Z,21.13
2023-02-07T12:39:16.858Z,19.97
2023-02-07T12:41:56.396Z,22.70
2023-02-07T12:44:37.816Z,26.87
2023-02-07T12:47:11.723Z,22.43
2023-02-07T12:49:57.440Z,24.43
2023-02-07T12:52:34.313Z,22.20
2023-02-07T12:55:29.117Z,22.83
2023-02-07T12:58:20.575Z,20.20
2023-02-07T13:01:03.400Z,20.67
2023-02-07T13:03:52.249Z,21.17
2023-02-07T13:06:40.809Z,20.67
2023-02-07T13:09:16.050Z,23.03
2023-02-07T13:12:10.925Z,18.57
2023-02-07T13:15:07.506Z,18.23
2023-02-07T13:17:57.312Z,20.53
2023-02-07T13:20:43.219Z,19.33
2023-02-07T13:23:22.467Z,18.97
2023-02-07T13:25:57.428Z,18.57
2023-02-07T13:28:33.991Z,18.43
2023-02-07T13:31:09.045Z,20.43
2023-02-07T13:33:44.020Z,22.53
2023-02-07T13:36:29.385Z,21.17
2023-02-07T13:39:02.991Z,22.03
2023-02-07T13:41:39.319Z,19.87
2023-02-07T13:44:17.362Z,18.90
2023-02-07T13:47:12.720Z,16.90
2023-02-07T13:49:51.943Z,19.90
2023-02-07T13:52:26.502Z,18.47
2023-02-07T13:55:16.266Z,20.50
2023-02-07T13:58:06.229Z,18.80
2023-02-07T14:00:44.572Z,19.57
2023-02-07T14:03:33.134Z,17.47
2023-02-07T14:06:25.839Z,18.47
2023-02-07T14:09:02.270Z,21.37
2023-02-07T14:11:44.988Z,18.10
2023-02-07T14:14:30.334Z,17.00
2023-02-07T14:17:09.193Z,20.87
2023-02-07T14:19:45.731Z,19.60
2023-02-07T14:22:23.166Z,18.20
2023-02-07T14:25:06.304Z,19.80
2023-02-07T14:27:44.821Z,19.47
2023-02-07T14:30:21.249Z,18.03
2023-02-07T14:33:07.908Z,18.70
2023-02-07T14:35:41.364Z,20.50
2023-02-07T14:38:23.984Z,18.10
2023-02-07T14:41:09.678Z,17.90
2023-02-07T14:43:36.075Z,16.60
2023-02-07T14:46:18.306Z,18.40
2023-02-07T14:48:57.018Z,27.33
2023-02-07T14:51:47.999Z,17.40
2023-02-07T14:54:42.152Z,14.90
2023-02-07T14:57:33.737Z,17.77
2023-02-07T15:00:10.636Z,17.03
2023-02-07T15:02:54.986Z,16.93
2023-02-07T15:05:35.230Z,16.40
2023-02-07T15:08:11.477Z,19.63
2023-02-07T15:11:01.196Z,16.87
2023-02-07T15:13:36.041Z,17.47
2023-02-07T15:16:10.021Z,16.37
2023-02-07T15:18:58.693Z,15.73
2023-02-07T15:21:37.772Z,18.70
2023-02-07T15:24:11.421Z,21.77
2023-02-07T15:26:42.298Z,15.43
2023-02-07T15:29:22.383Z,16.23
2023-02-07T15:31:55.754Z,18.37
2023-02-07T15:34:30.968Z,17.07
2023-02-07T15:37:03.891Z,16.33
2023-02-07T15:39:34.426Z,16.83
2023-02-07T15:42:06.643Z,19.50
2023-02-07T15:44:49.198Z,17.90
2023-02-07T15:47:36.792Z,18.60
2023-02-07T15:50:10.408Z,16.30
2023-02-07T15:52:49.479Z,15.90
2023-02-07T15:55:38.497Z,16.43
2023-02-07T15:58:10.851Z,17.63
2023-02-07T16:00:43.767Z,17.33
2023-02-07T16:03:20.303Z,17.27
2023-02-07T16:05:52.651Z,17.47
2023-02-07T16:08:32.158Z,18.90
2023-02-07T16:11:18.117Z,19.00
2023-02-07T16:13:55.819Z,18.53
2023-02-07T16:16:32.479Z,20.93
2023-02-07T16:19:09.351Z,19.03
2023-02-07T16:21:40.661Z,19.80
2023-02-07T16:24:14.237Z,18.87
2023-02-07T16:26:45.585Z,18.87
2023-02-07T16:29:22.486Z,18.37
2023-02-07T16:31:54.347Z,18.63
2023-02-07T16:34:28.962Z,18.77
2023-02-07T16:37:00.319Z,20.87
2023-02-07T16:39:30.831Z,21.60
2023-02-07T16:42:12.238Z,20.20
2023-02-07T16:44:43.297Z,19.93
2023-02-07T16:47:19.378Z,20.33
2023-02-07T16:49:49.994Z,17.53
2023-02-07T16:52:24.258Z,21.33
2023-02-07T16:54:55.569Z,18.37
2023-02-07T16:57:26.139Z,18.90
2023-02-07T16:59:56.928Z,16.90
2023-02-07T17:02:27.564Z,19.73
2023-02-07T17:04:58.024Z,21.47
2023-02-07T17:07:28.896Z,18.80
2023-02-07T17:10:00.291Z,18.77
2023-02-07T17:12:30.882Z,16.23
2023-02-07T17:15:04.102Z,18.60
2023-02-07T17:17:34.987Z,18.33
2023-02-07T17:20:08.383Z,17.97
2023-02-07T17:22:38.932Z,22.63
2023-02-07T17:25:09.786Z,17.73
2023-02-07T17:27:41.550Z,19.53
2023-02-07T17:30:32.361Z,17.83
2023-02-07T17:33:03.905Z,18.50
2023-02-07T17:35:35.705Z,19.77
2023-02-07T17:38:07.010Z,17.30
2023-02-07T17:40:40.157Z,18.20
2023-02-07T17:43:12.322Z,16.37
2023-02-07T17:45:42.816Z,18.13
2023-02-07T17:48:14.840Z,21.23
2023-02-07T17:50:45.815Z,20.33
2023-02-07T17:53:20.451Z,24.23
2023-02-07T17:55:53.721Z,26.57
2023-02-07T17:58:24.333Z,20.33
2023-02-07T18:00:57.483Z,18.73
2023-02-07T18:03:28.095Z,20.50
2023-02-07T18:06:01.264Z,21.83
2023-02-07T18:08:37.020Z,19.47
2023-02-07T18:11:08.704Z,22.20
2023-02-07T18:13:40.056Z,22.27
2023-02-07T18:16:16.710Z,21.67
2023-02-07T18:18:47.408Z,23.53
2023-02-07T18:21:19.445Z,19.90
2023-02-07T18:23:52.768Z,20.63
2023-02-07T18:26:24.125Z,22.23
2023-02-07T18:28:54.785Z,19.97
2023-02-07T18:31:26.149Z,25.43
2023-02-07T18:33:56.850Z,23.83
2023-02-07T18:36:29.157Z,24.07
2023-02-07T18:39:00.228Z,24.67
2023-02-07T18:41:30.876Z,24.70
2023-02-07T18:44:04.282Z,23.43
2023-02-07T18:46:36.017Z,27.50
2023-02-07T18:49:10.920Z,30.33
2023-02-07T18:51:42.260Z,33.37
2023-02-07T18:54:17.688Z,30.93
2023-02-07T18:56:49.881Z,27.33
2023-02-07T18:59:26.788Z,30.77
2023-02-07T19:01:58.955Z,27.47
2023-02-07T19:04:35.650Z,28.17
2023-02-07T19:07:07.888Z,29.87
2023-02-07T19:09:41.292Z,28.13
2023-02-07T19:12:11.792Z,24.57
2023-02-07T19:14:45.191Z,25.20
2023-02-07T19:17:16.361Z,29.70
2023-02-07T19:19:47.291Z,28.67
2023-02-07T19:22:26.727Z,25.83
2023-02-07T19:24:50.207Z,21.50
2023-02-07T19:27:23.014Z,23.13
2023-02-07T19:29:53.577Z,21.70
2023-02-07T19:32:26.982Z,30.27
2023-02-07T19:34:59.141Z,24.43
2023-02-07T19:37:31.163Z,23.33
2023-02-07T19:40:03.155Z,25.60
2023-02-07T19:42:33.801Z,24.57
2023-02-07T19:45:06.739Z,27.13
2023-02-07T19:47:37.405Z,24.30
2023-02-07T19:50:09.312Z,25.07
2023-02-07T19:52:42.568Z,24.90
2023-02-07T19:55:14.609Z,26.37
2023-02-07T19:57:45.487Z,23.43
2023-02-07T20:00:19.601Z,25.33
2023-02-07T20:02:52.580Z,24.13
2023-02-07T20:05:23.336Z,25.07
2023-02-07T20:07:55.194Z,30.43
2023-02-07T20:10:26.686Z,27.03
2023-02-07T20:12:58.219Z,34.73
2023-02-07T20:15:28.886Z,32.77
2023-02-07T20:18:00.997Z,28.40
2023-02-07T20:20:32.234Z,26.17
2023-02-07T20:23:04.054Z,28.27
2023-02-07T20:25:39.643Z,30.20
2023-02-07T20:28:10.373Z,25.57
2023-02-07T20:30:47.305Z,30.47
2023-02-07T20:33:19.831Z,29.63
2023-02-07T20:35:51.341Z,28.60
2023-02-07T20:38:21.902Z,29.97
2023-02-07T20:40:52.683Z,32.10
2023-02-07T20:43:24.296Z,29.87
2023-02-07T20:45:58.718Z,29.40
2023-02-07T20:48:29.225Z,29.63
2023-02-07T20:51:02.907Z,30.93
2023-02-07T20:53:33.789Z,31.20
2023-02-07T20:56:11.426Z,29.37
2023-02-07T20:58:43.765Z,27.67
2023-02-07T21:01:20.156Z,26.97
2023-02-07T21:03:53.224Z,25.20
2023-02-07T21:06:24.669Z,27.30
2023-02-07T21:09:02.496Z,27.70
2023-02-07T21:11:42.932Z,27.17
2023-02-07T21:14:29.436Z,25.90
2023-02-07T21:17:05.278Z,27.43
2023-02-07T21:19:37.605Z,30.80
2023-02-07T21:22:08.424Z,29.73
2023-02-07T21:24:42.909Z,27.37
2023-02-07T21:27:14.831Z,29.83
2023-02-07T21:29:45.510Z,28.27
2023-02-07T21:32:16.071Z,29.83
2023-02-07T21:34:48.586Z,29.90
2023-02-07T21:37:21.347Z,30.97
2023-02-07T21:39:54.756Z,31.73
2023-02-07T21:42:25.417Z,32.23
2023-02-07T21:44:57.798Z,34.60
2023-02-07T21:47:30.591Z,30.67
2023-02-07T21:50:04.687Z,28.90
2023-02-07T21:52:36.646Z,29.03
2023-02-07T21:55:11.279Z,30.43
2023-02-07T21:57:43.338Z,34.97
2023-02-07T22:00:15.035Z,31.47
2023-02-07T22:02:47.021Z,32.70
2023-02-07T22:05:17.758Z,31.93
2023-02-07T22:07:48.285Z,31.20
2023-02-07T22:10:20.433Z,29.87
2023-02-07T22:12:51.118Z,34.53
2023-02-07T22:15:23.215Z,38.33
2023-02-07T22:17:54.350Z,38.07
2023-02-07T22:20:27.971Z,38.83
2023-02-07T22:22:58.452Z,33.50
2023-02-07T22:25:30.639Z,36.93
2023-02-07T22:28:02.405Z,40.53
2023-02-07T22:30:35.322Z,36.23
2023-02-07T22:33:07.813Z,42.73
2023-02-07T22:35:40.113Z,33.60
2023-02-07T22:38:13.531Z,33.67
2023-02-07T22:40:45.890Z,32.30
2023-02-07T22:43:18.437Z,37.10
2023-02-07T22:45:49.731Z,35.23
2023-02-07T22:48:20.481Z,34.93
2023-02-07T22:50:53.605Z,35.97
2023-02-07T22:53:24.073Z,33.50
2023-02-07T22:55:54.949Z,34.23
2023-02-07T22:58:26.099Z,34.30
2023-02-07T23:00:57.893Z,35.40
2023-02-07T23:03:28.609Z,31.30
2023-02-07T23:05:59.111Z,33.50
2023-02-07T23:08:29.720Z,36.40
2023-02-07T23:11:00.364Z,32.37
2023-02-07T23:13:30.844Z,35.23
2023-02-07T23:16:02.428Z,38.97
2023-02-07T23:18:33.029Z,34.17
2023-02-07T23:21:03.746Z,37.97
2023-02-07T23:23:34.615Z,39.07
2023-02-07T23:26:07.991Z,35.60
2023-02-07T23:28:38.865Z,36.37
2023-02-07T23:31:13.089Z,37.27
2023-02-07T23:33:44.433Z,35.33
2023-02-07T23:36:17.733Z,33.47
2023-02-07T23:38:49.876Z,36.03
2023-02-07T23:41:21.482Z,34.10
2023-02-07T23:43:51.927Z,34.93
2023-02-07T23:46:22.480Z,34.30
2023-02-07T23:48:53.217Z,34.17
2023-02-07T23:51:23.965Z,36.33
2023-02-07T23:53:55.397Z,35.10
2023-02-07T23:56:26.139Z,35.93
2023-02-07T23:58:56.729Z,36.87
